Allendale, MI (49401)

21:51 EDT le 28 août 2016 (GMT -0400)
Trail Creek Pass | | Change Station

Alt. 659 ft 43.01 °N, 86.00 °W | Updated 2 seconds ago

Clear
Ciel dégagé
70.2 ° F
Paraît 70.2 ° F
N
0.0
Vent Variable Vent de ONO
Gusts 0.0 mph

Aujourd'hui
Haut(e) -- | Bas -- ° F
--% Risque de précip.
Hier
Haut(e) -- | Bas -- ° F
Precip. -- pouce
Pression 30.19 pouce
Visibilité 10.0 Miles terrestres
Nuages Ciel dégagé
Point de rosée 66 ° F
Humidité 88%
Précipitations 0.00 pouce
Profondeur de la couche neigeuse Non disponible.
7:04 AM 8:24 PM
Lune descendante, 12% visible
METAR KBIV 290053Z AUTO 32003KT 10SM CLR 22/18 A3019 RMK AO2 SLP221 T02170183
Pression 30.19 pouce
Visibilité 10.0 Miles terrestres
Nuages Ciel dégagé
Point de rosée 66 ° F
Humidité 88%
Précipitations 0.00 pouce
Profondeur de la couche neigeuse Non disponible.
7:04 AM 8:24 PM
Lune descendante, 12% visible
METAR KBIV 290053Z AUTO 32003KT 10SM CLR 22/18 A3019 RMK AO2 SLP221 T02170183

10-Day Weather Forecast

Almanac

Astronomie

Aug. 28, 2016 Lever Coucher
Temps réel
Crépuscule civil
Crépuscule nautique
Crépuscule astronomique
Lune
Durée de lumière visible
Longueur du jour
Tomorrow will be .
, % of the Moon is Illuminated

Extrêmes aujourd'hui

State Highs State Lows

Community

WunderPhotos

Upload Photos

1,935,757 Photos téléchargées !

WunderBlog® & News

Nearby

Qualité de l'air

  Qualité de l'air Indice de la qualité de l'air Polluant
Not available.

Épaisseur de neige

Station Depth Altitude

Activité sismique

Ville Distance Mag. Time & Date
Minimum magnitude displayed is 2.5.

Températures des eaux côtières

Lieu Température

Stations

Stations météo à proximité

Emplacement de la station Température Refroidissement éolien Point de rosée Humidité Vent Precip. Alt. Mise à jour Type
                   

Watches & Warnings

There are currently no watches in effect.